sensor_id;sensor_type;location;lat;lon;timestamp;P1;durP1;ratioP1;P2;durP2;ratioP2
2191;SDS011;1102;49.718;11.902;2023-03-17T00:00:17;17.77;;;8.47;;
2191;SDS011;1102;49.718;11.902;2023-03-17T00:02:45;9.37;;;6.90;;
2191;SDS011;1102;49.718;11.902;2023-03-17T00:05:23;13.00;;;6.60;;
2191;SDS011;1102;49.718;11.902;2023-03-17T00:07:52;9.60;;;7.43;;
2191;SDS011;1102;49.718;11.902;2023-03-17T00:10:21;7.33;;;6.63;;
2191;SDS011;1102;49.718;11.902;2023-03-17T00:12:51;8.83;;;6.70;;
2191;SDS011;1102;49.718;11.902;2023-03-17T00:15:19;6.40;;;5.80;;
2191;SDS011;1102;49.718;11.902;2023-03-17T00:17:48;6.77;;;5.00;;
2191;SDS011;1102;49.718;11.902;2023-03-17T00:20:33;6.30;;;5.73;;
2191;SDS011;1102;49.718;11.902;2023-03-17T00:23:01;9.90;;;6.80;;
2191;SDS011;1102;49.718;11.902;2023-03-17T00:25:32;8.47;;;6.53;;
2191;SDS011;1102;49.718;11.902;2023-03-17T00:28:00;11.80;;;7.27;;
2191;SDS011;1102;49.718;11.902;2023-03-17T00:30:28;9.17;;;5.90;;
2191;SDS011;1102;49.718;11.902;2023-03-17T00:32:56;7.17;;;5.70;;
2191;SDS011;1102;49.718;11.902;2023-03-17T00:35:24;8.73;;;5.87;;
2191;SDS011;1102;49.718;11.902;2023-03-17T00:37:55;8.43;;;5.80;;
2191;SDS011;1102;49.718;11.902;2023-03-17T00:40:24;11.33;;;6.40;;
2191;SDS011;1102;49.718;11.902;2023-03-17T00:42:55;7.70;;;6.43;;
2191;SDS011;1102;49.718;11.902;2023-03-17T00:45:24;11.60;;;5.77;;
2191;SDS011;1102;49.718;11.902;2023-03-17T00:47:53;8.23;;;6.50;;
2191;SDS011;1102;49.718;11.902;2023-03-17T00:50:22;9.07;;;6.00;;
2191;SDS011;1102;49.718;11.902;2023-03-17T00:52:51;8.10;;;6.00;;
2191;SDS011;1102;49.718;11.902;2023-03-17T00:55:19;11.30;;;6.33;;
2191;SDS011;1102;49.718;11.902;2023-03-17T00:57:46;6.17;;;5.57;;
2191;SDS011;1102;49.718;11.902;2023-03-17T01:02:48;6.00;;;4.90;;
2191;SDS011;1102;49.718;11.902;2023-03-17T01:05:15;5.57;;;4.47;;
2191;SDS011;1102;49.718;11.902;2023-03-17T01:07:43;9.87;;;6.13;;
2191;SDS011;1102;49.718;11.902;2023-03-17T01:10:15;7.20;;;6.30;;
2191;SDS011;1102;49.718;11.902;2023-03-17T01:12:45;9.07;;;5.73;;
2191;SDS011;1102;49.718;11.902;2023-03-17T01:15:12;7.60;;;5.03;;
2191;SDS011;1102;49.718;11.902;2023-03-17T01:17:40;7.00;;;4.57;;
2191;SDS011;1102;49.718;11.902;2023-03-17T01:20:09;8.63;;;5.83;;
2191;SDS011;1102;49.718;11.902;2023-03-17T01:22:42;6.87;;;5.83;;
2191;SDS011;1102;49.718;11.902;2023-03-17T01:25:09;10.40;;;6.23;;
2191;SDS011;1102;49.718;11.902;2023-03-17T01:27:37;11.53;;;7.17;;
2191;SDS011;1102;49.718;11.902;2023-03-17T01:30:05;7.10;;;5.43;;
2191;SDS011;1102;49.718;11.902;2023-03-17T01:32:43;6.03;;;5.33;;
2191;SDS011;1102;49.718;11.902;2023-03-17T01:35:09;7.10;;;6.07;;
2191;SDS011;1102;49.718;11.902;2023-03-17T01:37:37;8.70;;;6.60;;
2191;SDS011;1102;49.718;11.902;2023-03-17T01:40:04;7.97;;;5.23;;
2191;SDS011;1102;49.718;11.902;2023-03-17T01:42:32;7.70;;;5.80;;
2191;SDS011;1102;49.718;11.902;2023-03-17T01:45:03;9.87;;;6.40;;
2191;SDS011;1102;49.718;11.902;2023-03-17T01:47:32;8.80;;;6.80;;
2191;SDS011;1102;49.718;11.902;2023-03-17T01:50:02;8.33;;;5.23;;
2191;SDS011;1102;49.718;11.902;2023-03-17T01:52:36;7.47;;;6.43;;
2191;SDS011;1102;49.718;11.902;2023-03-17T01:55:06;8.27;;;5.40;;
2191;SDS011;1102;49.718;11.902;2023-03-17T01:57:58;7.87;;;5.93;;
2191;SDS011;1102;49.718;11.902;2023-03-17T02:00:25;10.60;;;6.47;;
2191;SDS011;1102;49.718;11.902;2023-03-17T02:02:55;9.53;;;6.40;;
2191;SDS011;1102;49.718;11.902;2023-03-17T02:05:25;7.20;;;5.30;;
2191;SDS011;1102;49.718;11.902;2023-03-17T02:07:55;7.00;;;5.83;;
2191;SDS011;1102;49.718;11.902;2023-03-17T02:10:26;6.83;;;5.57;;
2191;SDS011;1102;49.718;11.902;2023-03-17T02:12:58;7.13;;;5.87;;
2191;SDS011;1102;49.718;11.902;2023-03-17T02:15:43;5.70;;;5.20;;
2191;SDS011;1102;49.718;11.902;2023-03-17T02:18:11;5.77;;;5.20;;
2191;SDS011;1102;49.718;11.902;2023-03-17T02:23:07;7.63;;;5.13;;
2191;SDS011;1102;49.718;11.902;2023-03-17T02:25:34;6.20;;;5.57;;
2191;SDS011;1102;49.718;11.902;2023-03-17T02:28:06;7.70;;;6.20;;
2191;SDS011;1102;49.718;11.902;2023-03-17T02:30:35;5.30;;;4.13;;
2191;SDS011;1102;49.718;11.902;2023-03-17T02:33:03;6.10;;;5.50;;
2191;SDS011;1102;49.718;11.902;2023-03-17T02:35:29;9.80;;;6.03;;
2191;SDS011;1102;49.718;11.902;2023-03-17T02:37:57;6.00;;;5.40;;
2191;SDS011;1102;49.718;11.902;2023-03-17T02:40:27;5.07;;;4.50;;
2191;SDS011;1102;49.718;11.902;2023-03-17T02:42:54;7.80;;;6.73;;
2191;SDS011;1102;49.718;11.902;2023-03-17T02:45:26;9.40;;;6.30;;
2191;SDS011;1102;49.718;11.902;2023-03-17T02:47:54;7.90;;;5.93;;
2191;SDS011;1102;49.718;11.902;2023-03-17T02:50:22;7.17;;;5.43;;
2191;SDS011;1102;49.718;11.902;2023-03-17T02:52:51;9.83;;;6.07;;
2191;SDS011;1102;49.718;11.902;2023-03-17T02:55:18;6.53;;;5.87;;
2191;SDS011;1102;49.718;11.902;2023-03-17T02:57:45;6.80;;;5.57;;
2191;SDS011;1102;49.718;11.902;2023-03-17T03:00:12;7.43;;;5.30;;
2191;SDS011;1102;49.718;11.902;2023-03-17T03:02:39;10.30;;;6.10;;
2191;SDS011;1102;49.718;11.902;2023-03-17T03:05:07;8.00;;;7.03;;
2191;SDS011;1102;49.718;11.902;2023-03-17T03:07:34;7.10;;;5.37;;
2191;SDS011;1102;49.718;11.902;2023-03-17T03:10:02;5.30;;;4.80;;
2191;SDS011;1102;49.718;11.902;2023-03-17T03:12:29;6.07;;;5.40;;
2191;SDS011;1102;49.718;11.902;2023-03-17T03:14:56;8.83;;;5.83;;
2191;SDS011;1102;49.718;11.902;2023-03-17T03:17:25;11.23;;;5.53;;
2191;SDS011;1102;49.718;11.902;2023-03-17T03:19:51;5.87;;;5.10;;
2191;SDS011;1102;49.718;11.902;2023-03-17T03:22:18;7.10;;;6.37;;
2191;SDS011;1102;49.718;11.902;2023-03-17T03:24:45;6.87;;;5.17;;
2191;SDS011;1102;49.718;11.902;2023-03-17T03:27:12;6.40;;;5.27;;
2191;SDS011;1102;49.718;11.902;2023-03-17T03:29:38;6.63;;;6.00;;
2191;SDS011;1102;49.718;11.902;2023-03-17T03:32:05;6.83;;;5.70;;
2191;SDS011;1102;49.718;11.902;2023-03-17T03:34:32;7.67;;;5.70;;
2191;SDS011;1102;49.718;11.902;2023-03-17T03:36:59;10.07;;;6.00;;
2191;SDS011;1102;49.718;11.902;2023-03-17T03:39:26;6.27;;;5.67;;
2191;SDS011;1102;49.718;11.902;2023-03-17T03:41:53;5.67;;;4.63;;
2191;SDS011;1102;49.718;11.902;2023-03-17T03:44:22;8.93;;;5.40;;
2191;SDS011;1102;49.718;11.902;2023-03-17T03:46:50;8.23;;;6.30;;
2191;SDS011;1102;49.718;11.902;2023-03-17T03:49:17;7.10;;;5.70;;
2191;SDS011;1102;49.718;11.902;2023-03-17T03:51:43;6.10;;;5.43;;
2191;SDS011;1102;49.718;11.902;2023-03-17T03:54:10;6.50;;;5.80;;
2191;SDS011;1102;49.718;11.902;2023-03-17T03:56:37;8.67;;;5.77;;
2191;SDS011;1102;49.718;11.902;2023-03-17T03:59:03;8.30;;;5.90;;
2191;SDS011;1102;49.718;11.902;2023-03-17T04:01:30;5.70;;;5.17;;
2191;SDS011;1102;49.718;11.902;2023-03-17T04:03:57;10.10;;;6.03;;
2191;SDS011;1102;49.718;11.902;2023-03-17T04:06:23;8.60;;;5.77;;
2191;SDS011;1102;49.718;11.902;2023-03-17T04:08:50;7.07;;;6.20;;
2191;SDS011;1102;49.718;11.902;2023-03-17T04:11:17;6.90;;;4.97;;
2191;SDS011;1102;49.718;11.902;2023-03-17T04:13:43;5.57;;;5.03;;
2191;SDS011;1102;49.718;11.902;2023-03-17T04:16:10;6.47;;;4.67;;
2191;SDS011;1102;49.718;11.902;2023-03-17T04:18:37;7.77;;;5.90;;
2191;SDS011;1102;49.718;11.902;2023-03-17T04:21:04;6.80;;;5.57;;
2191;SDS011;1102;49.718;11.902;2023-03-17T04:23:31;8.10;;;5.27;;
2191;SDS011;1102;49.718;11.902;2023-03-17T04:25:58;6.93;;;5.63;;
2191;SDS011;1102;49.718;11.902;2023-03-17T04:28:24;10.27;;;5.37;;
2191;SDS011;1102;49.718;11.902;2023-03-17T04:30:51;6.43;;;5.70;;
2191;SDS011;1102;49.718;11.902;2023-03-17T04:33:18;7.93;;;6.07;;
2191;SDS011;1102;49.718;11.902;2023-03-17T04:35:45;7.47;;;5.60;;
2191;SDS011;1102;49.718;11.902;2023-03-17T04:38:12;7.00;;;5.73;;
2191;SDS011;1102;49.718;11.902;2023-03-17T04:40:39;7.97;;;6.47;;
2191;SDS011;1102;49.718;11.902;2023-03-17T04:43:06;6.23;;;5.63;;
2191;SDS011;1102;49.718;11.902;2023-03-17T04:45:32;6.47;;;5.70;;
2191;SDS011;1102;49.718;11.902;2023-03-17T04:47:59;5.87;;;5.37;;
2191;SDS011;1102;49.718;11.902;2023-03-17T04:50:26;8.77;;;5.93;;
2191;SDS011;1102;49.718;11.902;2023-03-17T04:52:52;7.80;;;6.17;;
2191;SDS011;1102;49.718;11.902;2023-03-17T04:55:19;9.77;;;5.50;;
2191;SDS011;1102;49.718;11.902;2023-03-17T04:57:46;12.03;;;5.83;;
2191;SDS011;1102;49.718;11.902;2023-03-17T05:00:13;7.10;;;5.73;;
2191;SDS011;1102;49.718;11.902;2023-03-17T05:02:40;6.93;;;6.23;;
2191;SDS011;1102;49.718;11.902;2023-03-17T05:05:10;20.40;;;17.87;;
2191;SDS011;1102;49.718;11.902;2023-03-17T05:07:38;18.40;;;15.17;;
2191;SDS011;1102;49.718;11.902;2023-03-17T05:10:05;34.30;;;27.20;;
2191;SDS011;1102;49.718;11.902;2023-03-17T05:12:32;21.10;;;16.60;;
2191;SDS011;1102;49.718;11.902;2023-03-17T05:14:59;15.80;;;12.70;;
2191;SDS011;1102;49.718;11.902;2023-03-17T05:17:26;92.77;;;48.00;;
2191;SDS011;1102;49.718;11.902;2023-03-17T05:19:52;95.00;;;45.17;;
2191;SDS011;1102;49.718;11.902;2023-03-17T05:22:19;45.37;;;27.97;;
2191;SDS011;1102;49.718;11.902;2023-03-17T05:24:46;46.83;;;29.17;;
2191;SDS011;1102;49.718;11.902;2023-03-17T05:27:12;41.17;;;24.97;;
2191;SDS011;1102;49.718;11.902;2023-03-17T05:29:39;30.10;;;19.33;;
2191;SDS011;1102;49.718;11.902;2023-03-17T05:32:06;41.73;;;27.00;;
2191;SDS011;1102;49.718;11.902;2023-03-17T05:34:32;49.30;;;28.37;;
2191;SDS011;1102;49.718;11.902;2023-03-17T05:36:59;36.33;;;24.00;;
2191;SDS011;1102;49.718;11.902;2023-03-17T05:39:26;33.90;;;19.20;;
2191;SDS011;1102;49.718;11.902;2023-03-17T05:41:53;31.60;;;19.57;;
2191;SDS011;1102;49.718;11.902;2023-03-17T05:44:19;32.50;;;19.53;;
2191;SDS011;1102;49.718;11.902;2023-03-17T05:46:46;24.03;;;16.57;;
2191;SDS011;1102;49.718;11.902;2023-03-17T05:49:13;21.37;;;16.10;;
2191;SDS011;1102;49.718;11.902;2023-03-17T05:51:40;31.73;;;15.83;;
2191;SDS011;1102;49.718;11.902;2023-03-17T05:54:07;25.33;;;18.50;;
2191;SDS011;1102;49.718;11.902;2023-03-17T05:56:34;19.83;;;16.10;;
2191;SDS011;1102;49.718;11.902;2023-03-17T05:59:01;26.33;;;18.40;;
2191;SDS011;1102;49.718;11.902;2023-03-17T06:01:28;22.87;;;15.87;;
2191;SDS011;1102;49.718;11.902;2023-03-17T06:03:55;18.80;;;12.53;;
2191;SDS011;1102;49.718;11.902;2023-03-17T06:06:24;12.97;;;10.87;;
2191;SDS011;1102;49.718;11.902;2023-03-17T06:08:51;11.40;;;9.63;;
2191;SDS011;1102;49.718;11.902;2023-03-17T06:11:18;10.20;;;9.20;;
2191;SDS011;1102;49.718;11.902;2023-03-17T06:13:46;15.47;;;10.60;;
2191;SDS011;1102;49.718;11.902;2023-03-17T06:16:14;12.83;;;9.20;;
2191;SDS011;1102;49.718;11.902;2023-03-17T06:18:41;11.80;;;8.90;;
2191;SDS011;1102;49.718;11.902;2023-03-17T06:21:07;7.63;;;6.83;;
2191;SDS011;1102;49.718;11.902;2023-03-17T06:23:34;10.87;;;7.93;;
2191;SDS011;1102;49.718;11.902;2023-03-17T06:26:01;9.83;;;8.13;;
2191;SDS011;1102;49.718;11.902;2023-03-17T06:28:28;11.47;;;9.20;;
2191;SDS011;1102;49.718;11.902;2023-03-17T06:30:55;10.27;;;7.70;;
2191;SDS011;1102;49.718;11.902;2023-03-17T06:33:23;9.47;;;7.90;;
2191;SDS011;1102;49.718;11.902;2023-03-17T06:35:50;8.70;;;7.80;;
2191;SDS011;1102;49.718;11.902;2023-03-17T06:38:17;10.57;;;8.40;;
2191;SDS011;1102;49.718;11.902;2023-03-17T06:40:46;9.67;;;7.00;;
2191;SDS011;1102;49.718;11.902;2023-03-17T06:43:13;16.97;;;7.17;;
2191;SDS011;1102;49.718;11.902;2023-03-17T06:45:39;8.53;;;7.23;;
2191;SDS011;1102;49.718;11.902;2023-03-17T06:48:06;6.90;;;6.20;;
2191;SDS011;1102;49.718;11.902;2023-03-17T06:50:33;7.97;;;6.83;;
2191;SDS011;1102;49.718;11.902;2023-03-17T06:53:00;7.50;;;6.43;;
2191;SDS011;1102;49.718;11.902;2023-03-17T06:55:27;7.70;;;6.90;;
2191;SDS011;1102;49.718;11.902;2023-03-17T06:57:54;13.40;;;7.70;;
2191;SDS011;1102;49.718;11.902;2023-03-17T07:00:21;8.67;;;7.80;;
2191;SDS011;1102;49.718;11.902;2023-03-17T07:02:48;8.47;;;6.53;;
2191;SDS011;1102;49.718;11.902;2023-03-17T07:05:15;8.07;;;6.07;;
2191;SDS011;1102;49.718;11.902;2023-03-17T07:07:44;15.73;;;7.30;;
2191;SDS011;1102;49.718;11.902;2023-03-17T07:10:11;8.50;;;5.20;;
2191;SDS011;1102;49.718;11.902;2023-03-17T07:12:40;5.23;;;4.73;;
2191;SDS011;1102;49.718;11.902;2023-03-17T07:15:08;9.07;;;4.70;;
2191;SDS011;1102;49.718;11.902;2023-03-17T07:17:36;4.67;;;4.27;;
2191;SDS011;1102;49.718;11.902;2023-03-17T07:20:04;6.30;;;4.43;;
2191;SDS011;1102;49.718;11.902;2023-03-17T07:22:31;6.43;;;4.30;;
2191;SDS011;1102;49.718;11.902;2023-03-17T07:24:58;4.70;;;4.00;;
2191;SDS011;1102;49.718;11.902;2023-03-17T07:27:25;5.63;;;5.13;;
2191;SDS011;1102;49.718;11.902;2023-03-17T07:29:54;6.37;;;4.70;;
2191;SDS011;1102;49.718;11.902;2023-03-17T07:32:21;10.37;;;3.93;;
2191;SDS011;1102;49.718;11.902;2023-03-17T07:34:48;8.33;;;5.20;;
2191;SDS011;1102;49.718;11.902;2023-03-17T07:37:15;6.50;;;5.90;;
2191;SDS011;1102;49.718;11.902;2023-03-17T07:39:42;11.60;;;4.60;;
2191;SDS011;1102;49.718;11.902;2023-03-17T07:42:10;7.27;;;4.17;;
2191;SDS011;1102;49.718;11.902;2023-03-17T07:44:40;9.60;;;4.80;;
2191;SDS011;1102;49.718;11.902;2023-03-17T07:47:07;8.40;;;4.13;;
2191;SDS011;1102;49.718;11.902;2023-03-17T07:49:36;5.57;;;4.17;;
2191;SDS011;1102;49.718;11.902;2023-03-17T07:52:07;7.50;;;5.10;;
2191;SDS011;1102;49.718;11.902;2023-03-17T07:54:35;5.47;;;4.97;;
2191;SDS011;1102;49.718;11.902;2023-03-17T07:57:03;7.83;;;4.40;;
2191;SDS011;1102;49.718;11.902;2023-03-17T07:59:31;6.40;;;4.73;;
2191;SDS011;1102;49.718;11.902;2023-03-17T08:01:58;4.63;;;3.20;;
2191;SDS011;1102;49.718;11.902;2023-03-17T08:04:26;7.37;;;4.33;;
2191;SDS011;1102;49.718;11.902;2023-03-17T08:06:53;4.30;;;3.70;;
2191;SDS011;1102;49.718;11.902;2023-03-17T08:09:20;5.37;;;4.23;;
2191;SDS011;1102;49.718;11.902;2023-03-17T08:11:50;7.40;;;4.10;;
2191;SDS011;1102;49.718;11.902;2023-03-17T08:14:17;5.80;;;4.20;;
2191;SDS011;1102;49.718;11.902;2023-03-17T08:16:43;5.57;;;3.70;;
2191;SDS011;1102;49.718;11.902;2023-03-17T08:19:10;8.83;;;4.37;;
2191;SDS011;1102;49.718;11.902;2023-03-17T08:21:37;5.70;;;4.10;;
2191;SDS011;1102;49.718;11.902;2023-03-17T08:24:04;5.20;;;4.10;;
2191;SDS011;1102;49.718;11.902;2023-03-17T08:26:31;4.97;;;4.20;;
2191;SDS011;1102;49.718;11.902;2023-03-17T08:28:58;5.47;;;3.87;;
2191;SDS011;1102;49.718;11.902;2023-03-17T08:31:24;4.50;;;3.70;;
2191;SDS011;1102;49.718;11.902;2023-03-17T08:33:52;4.73;;;4.13;;
2191;SDS011;1102;49.718;11.902;2023-03-17T08:36:19;5.27;;;3.67;;
2191;SDS011;1102;49.718;11.902;2023-03-17T08:38:46;3.87;;;3.57;;
2191;SDS011;1102;49.718;11.902;2023-03-17T08:41:15;4.43;;;3.47;;
2191;SDS011;1102;49.718;11.902;2023-03-17T08:43:44;5.10;;;3.40;;
2191;SDS011;1102;49.718;11.902;2023-03-17T08:46:16;3.73;;;3.10;;
2191;SDS011;1102;49.718;11.902;2023-03-17T08:48:45;4.43;;;3.47;;
2191;SDS011;1102;49.718;11.902;2023-03-17T08:51:13;3.97;;;3.60;;
2191;SDS011;1102;49.718;11.902;2023-03-17T08:53:44;3.40;;;3.10;;
2191;SDS011;1102;49.718;11.902;2023-03-17T08:56:11;3.73;;;3.37;;
2191;SDS011;1102;49.718;11.902;2023-03-17T08:58:39;5.97;;;2.63;;
2191;SDS011;1102;49.718;11.902;2023-03-17T09:01:09;3.57;;;3.27;;
2191;SDS011;1102;49.718;11.902;2023-03-17T09:03:36;5.00;;;3.03;;
2191;SDS011;1102;49.718;11.902;2023-03-17T09:06:05;3.13;;;2.83;;
2191;SDS011;1102;49.718;11.902;2023-03-17T09:08:33;3.30;;;2.63;;
2191;SDS011;1102;49.718;11.902;2023-03-17T09:11:02;4.73;;;2.90;;
2191;SDS011;1102;49.718;11.902;2023-03-17T09:13:31;3.60;;;3.00;;
2191;SDS011;1102;49.718;11.902;2023-03-17T09:15:58;2.73;;;2.53;;
2191;SDS011;1102;49.718;11.902;2023-03-17T09:18:26;2.60;;;2.40;;
2191;SDS011;1102;49.718;11.902;2023-03-17T09:20:53;2.30;;;2.10;;
2191;SDS011;1102;49.718;11.902;2023-03-17T09:23:20;3.80;;;2.40;;
2191;SDS011;1102;49.718;11.902;2023-03-17T09:25:48;3.73;;;2.23;;
2191;SDS011;1102;49.718;11.902;2023-03-17T09:28:16;2.40;;;2.20;;
2191;SDS011;1102;49.718;11.902;2023-03-17T09:30:44;2.97;;;2.47;;
2191;SDS011;1102;49.718;11.902;2023-03-17T09:33:11;3.47;;;2.53;;
2191;SDS011;1102;49.718;11.902;2023-03-17T09:35:39;3.40;;;2.57;;
2191;SDS011;1102;49.718;11.902;2023-03-17T09:38:06;2.60;;;2.30;;
2191;SDS011;1102;49.718;11.902;2023-03-17T09:40:47;2.57;;;2.37;;
2191;SDS011;1102;49.718;11.902;2023-03-17T09:43:21;3.43;;;2.87;;
2191;SDS011;1102;49.718;11.902;2023-03-17T09:45:59;4.27;;;2.70;;
2191;SDS011;1102;49.718;11.902;2023-03-17T09:48:42;2.93;;;2.30;;
2191;SDS011;1102;49.718;11.902;2023-03-17T09:51:29;2.60;;;1.90;;
2191;SDS011;1102;49.718;11.902;2023-03-17T09:53:58;5.90;;;2.60;;
2191;SDS011;1102;49.718;11.902;2023-03-17T09:56:32;2.70;;;2.17;;
2191;SDS011;1102;49.718;11.902;2023-03-17T09:59:03;2.90;;;2.00;;
2191;SDS011;1102;49.718;11.902;2023-03-17T10:01:32;2.57;;;2.03;;
2191;SDS011;1102;49.718;11.902;2023-03-17T10:04:00;3.10;;;2.37;;
2191;SDS011;1102;49.718;11.902;2023-03-17T10:06:33;2.07;;;1.53;;
2191;SDS011;1102;49.718;11.902;2023-03-17T10:12:15;2.90;;;2.30;;
2191;SDS011;1102;49.718;11.902;2023-03-17T10:15:00;3.60;;;2.13;;
2191;SDS011;1102;49.718;11.902;2023-03-17T10:17:39;3.33;;;2.47;;
2191;SDS011;1102;49.718;11.902;2023-03-17T10:20:10;2.87;;;1.93;;
2191;SDS011;1102;49.718;11.902;2023-03-17T10:22:40;2.30;;;1.97;;
2191;SDS011;1102;49.718;11.902;2023-03-17T10:27:40;6.97;;;1.80;;
2191;SDS011;1102;49.718;11.902;2023-03-17T10:30:14;3.37;;;2.47;;
2191;SDS011;1102;49.718;11.902;2023-03-17T10:32:46;3.20;;;2.03;;
2191;SDS011;1102;49.718;11.902;2023-03-17T10:35:14;3.03;;;2.23;;
2191;SDS011;1102;49.718;11.902;2023-03-17T10:37:42;4.27;;;1.90;;
2191;SDS011;1102;49.718;11.902;2023-03-17T10:40:19;3.00;;;1.80;;
2191;SDS011;1102;49.718;11.902;2023-03-17T10:42:51;2.00;;;1.70;;
2191;SDS011;1102;49.718;11.902;2023-03-17T10:45:29;3.87;;;2.30;;
2191;SDS011;1102;49.718;11.902;2023-03-17T10:47:58;3.40;;;2.00;;
2191;SDS011;1102;49.718;11.902;2023-03-17T10:50:29;6.30;;;2.03;;
2191;SDS011;1102;49.718;11.902;2023-03-17T10:52:59;2.67;;;2.43;;
2191;SDS011;1102;49.718;11.902;2023-03-17T10:55:27;3.00;;;2.00;;
2191;SDS011;1102;49.718;11.902;2023-03-17T11:00:27;2.47;;;1.77;;
2191;SDS011;1102;49.718;11.902;2023-03-17T11:03:01;2.10;;;2.00;;
2191;SDS011;1102;49.718;11.902;2023-03-17T11:05:35;2.83;;;2.20;;
2191;SDS011;1102;49.718;11.902;2023-03-17T11:08:17;1.63;;;1.53;;
2191;SDS011;1102;49.718;11.902;2023-03-17T11:10:44;2.13;;;1.53;;
2191;SDS011;1102;49.718;11.902;2023-03-17T11:13:15;2.50;;;1.77;;
2191;SDS011;1102;49.718;11.902;2023-03-17T11:15:45;2.80;;;1.60;;
2191;SDS011;1102;49.718;11.902;2023-03-17T11:18:19;2.10;;;1.70;;
2191;SDS011;1102;49.718;11.902;2023-03-17T11:21:06;2.10;;;1.90;;
2191;SDS011;1102;49.718;11.902;2023-03-17T11:23:45;3.20;;;1.90;;
2191;SDS011;1102;49.718;11.902;2023-03-17T11:28:49;2.13;;;1.77;;
2191;SDS011;1102;49.718;11.902;2023-03-17T11:34:01;3.20;;;2.30;;
2191;SDS011;1102;49.718;11.902;2023-03-17T11:36:50;3.27;;;2.17;;
2191;SDS011;1102;49.718;11.902;2023-03-17T11:39:24;2.47;;;1.57;;
2191;SDS011;1102;49.718;11.902;2023-03-17T11:42:02;2.10;;;1.87;;
2191;SDS011;1102;49.718;11.902;2023-03-17T11:45:00;3.40;;;2.63;;
2191;SDS011;1102;49.718;11.902;2023-03-17T11:50:40;2.50;;;2.00;;
2191;SDS011;1102;49.718;11.902;2023-03-17T11:56:20;2.70;;;2.23;;
2191;SDS011;1102;49.718;11.902;2023-03-17T11:58:58;2.03;;;1.47;;
2191;SDS011;1102;49.718;11.902;2023-03-17T12:01:32;2.37;;;2.07;;
2191;SDS011;1102;49.718;11.902;2023-03-17T12:06:45;2.30;;;2.00;;
2191;SDS011;1102;49.718;11.902;2023-03-17T12:09:33;2.43;;;2.00;;
2191;SDS011;1102;49.718;11.902;2023-03-17T12:12:13;2.50;;;1.70;;
2191;SDS011;1102;49.718;11.902;2023-03-17T12:14:49;3.90;;;1.87;;
2191;SDS011;1102;49.718;11.902;2023-03-17T12:17:22;2.00;;;1.77;;
2191;SDS011;1102;49.718;11.902;2023-03-17T12:20:15;2.40;;;1.67;;
2191;SDS011;1102;49.718;11.902;2023-03-17T12:22:55;5.47;;;1.93;;
2191;SDS011;1102;49.718;11.902;2023-03-17T12:28:27;2.17;;;1.73;;
2191;SDS011;1102;49.718;11.902;2023-03-17T12:31:05;2.43;;;1.60;;
2191;SDS011;1102;49.718;11.902;2023-03-17T12:33:58;1.50;;;1.40;;
2191;SDS011;1102;49.718;11.902;2023-03-17T12:36:34;2.70;;;1.80;;
2191;SDS011;1102;49.718;11.902;2023-03-17T12:39:08;2.00;;;1.40;;
2191;SDS011;1102;49.718;11.902;2023-03-17T12:41:47;2.50;;;1.90;;
2191;SDS011;1102;49.718;11.902;2023-03-17T12:55:58;1.50;;;1.40;;
2191;SDS011;1102;49.718;11.902;2023-03-17T12:58:38;1.73;;;1.60;;
2191;SDS011;1102;49.718;11.902;2023-03-17T13:03:55;1.67;;;1.57;;
2191;SDS011;1102;49.718;11.902;2023-03-17T13:06:27;1.70;;;1.60;;
2191;SDS011;1102;49.718;11.902;2023-03-17T13:08:56;3.07;;;1.73;;
2191;SDS011;1102;49.718;11.902;2023-03-17T13:11:53;2.03;;;1.90;;
2191;SDS011;1102;49.718;11.902;2023-03-17T13:22:23;1.60;;;1.30;;
2191;SDS011;1102;49.718;11.902;2023-03-17T13:25:27;1.93;;;1.37;;
2191;SDS011;1102;49.718;11.902;2023-03-17T13:28:16;1.90;;;1.33;;
2191;SDS011;1102;49.718;11.902;2023-03-17T13:33:39;2.70;;;1.77;;
2191;SDS011;1102;49.718;11.902;2023-03-17T13:36:15;3.20;;;1.50;;
2191;SDS011;1102;49.718;11.902;2023-03-17T13:38:48;1.27;;;1.17;;
2191;SDS011;1102;49.718;11.902;2023-03-17T13:44:56;2.87;;;1.57;;
2191;SDS011;1102;49.718;11.902;2023-03-17T13:47:41;2.00;;;1.50;;
2191;SDS011;1102;49.718;11.902;2023-03-17T13:50:13;2.70;;;1.27;;
2191;SDS011;1102;49.718;11.902;2023-03-17T13:52:56;2.77;;;1.83;;
2191;SDS011;1102;49.718;11.902;2023-03-17T13:55:32;2.37;;;1.70;;
2191;SDS011;1102;49.718;11.902;2023-03-17T14:00:40;1.80;;;1.37;;
2191;SDS011;1102;49.718;11.902;2023-03-17T14:03:19;1.77;;;1.47;;
2191;SDS011;1102;49.718;11.902;2023-03-17T14:05:54;1.70;;;1.60;;
2191;SDS011;1102;49.718;11.902;2023-03-17T14:08:34;1.97;;;1.40;;
2191;SDS011;1102;49.718;11.902;2023-03-17T14:11:06;2.20;;;1.63;;
2191;SDS011;1102;49.718;11.902;2023-03-17T14:22:53;4.27;;;2.20;;
2191;SDS011;1102;49.718;11.902;2023-03-17T14:25:22;2.30;;;1.80;;
2191;SDS011;1102;49.718;11.902;2023-03-17T14:27:52;2.37;;;1.73;;
2191;SDS011;1102;49.718;11.902;2023-03-17T14:30:22;1.97;;;1.60;;
2191;SDS011;1102;49.718;11.902;2023-03-17T14:33:02;2.60;;;2.40;;
2191;SDS011;1102;49.718;11.902;2023-03-17T14:35:34;2.10;;;1.67;;
2191;SDS011;1102;49.718;11.902;2023-03-17T14:40:45;2.70;;;2.07;;
2191;SDS011;1102;49.718;11.902;2023-03-17T14:43:13;3.17;;;2.20;;
2191;SDS011;1102;49.718;11.902;2023-03-17T14:45:48;3.00;;;1.83;;
2191;SDS011;1102;49.718;11.902;2023-03-17T14:48:27;3.57;;;2.20;;
2191;SDS011;1102;49.718;11.902;2023-03-17T14:51:01;1.73;;;1.57;;
2191;SDS011;1102;49.718;11.902;2023-03-17T14:53:35;1.87;;;1.77;;
2191;SDS011;1102;49.718;11.902;2023-03-17T14:56:06;2.47;;;2.27;;
2191;SDS011;1102;49.718;11.902;2023-03-17T14:58:39;4.80;;;2.43;;
2191;SDS011;1102;49.718;11.902;2023-03-17T15:01:14;3.23;;;2.93;;
2191;SDS011;1102;49.718;11.902;2023-03-17T15:07:24;3.43;;;2.47;;
2191;SDS011;1102;49.718;11.902;2023-03-17T15:12:03;3.20;;;2.37;;
2191;SDS011;1102;49.718;11.902;2023-03-17T15:14:33;2.70;;;2.50;;
2191;SDS011;1102;49.718;11.902;2023-03-17T15:17:05;3.97;;;2.90;;
2191;SDS011;1102;49.718;11.902;2023-03-17T15:19:43;2.80;;;2.10;;
2191;SDS011;1102;49.718;11.902;2023-03-17T15:22:28;4.80;;;2.30;;
2191;SDS011;1102;49.718;11.902;2023-03-17T15:25:02;3.10;;;2.20;;
2191;SDS011;1102;49.718;11.902;2023-03-17T15:27:43;2.50;;;2.00;;
2191;SDS011;1102;49.718;11.902;2023-03-17T15:30:11;2.70;;;2.23;;
2191;SDS011;1102;49.718;11.902;2023-03-17T15:32:38;2.80;;;2.40;;
2191;SDS011;1102;49.718;11.902;2023-03-17T15:35:06;3.03;;;2.70;;
2191;SDS011;1102;49.718;11.902;2023-03-17T15:37:33;2.30;;;2.10;;
2191;SDS011;1102;49.718;11.902;2023-03-17T15:40:01;3.77;;;2.57;;
2191;SDS011;1102;49.718;11.902;2023-03-17T15:42:31;2.80;;;2.40;;
2191;SDS011;1102;49.718;11.902;2023-03-17T15:45:00;3.00;;;2.50;;
2191;SDS011;1102;49.718;11.902;2023-03-17T15:47:29;2.40;;;1.93;;
2191;SDS011;1102;49.718;11.902;2023-03-17T15:50:01;3.80;;;2.87;;
2191;SDS011;1102;49.718;11.902;2023-03-17T15:52:39;3.10;;;2.80;;
2191;SDS011;1102;49.718;11.902;2023-03-17T15:55:09;2.57;;;2.37;;
2191;SDS011;1102;49.718;11.902;2023-03-17T15:57:41;2.17;;;1.97;;
2191;SDS011;1102;49.718;11.902;2023-03-17T16:00:19;3.50;;;2.33;;
2191;SDS011;1102;49.718;11.902;2023-03-17T16:02:49;3.10;;;2.80;;
2191;SDS011;1102;49.718;11.902;2023-03-17T16:05:26;5.30;;;3.67;;
2191;SDS011;1102;49.718;11.902;2023-03-17T16:07:56;8.70;;;5.20;;
2191;SDS011;1102;49.718;11.902;2023-03-17T16:10:24;5.10;;;4.20;;
2191;SDS011;1102;49.718;11.902;2023-03-17T16:12:53;5.73;;;4.17;;
2191;SDS011;1102;49.718;11.902;2023-03-17T16:15:20;5.27;;;3.77;;
2191;SDS011;1102;49.718;11.902;2023-03-17T16:18:11;3.70;;;3.30;;
2191;SDS011;1102;49.718;11.902;2023-03-17T16:20:40;5.97;;;4.60;;
2191;SDS011;1102;49.718;11.902;2023-03-17T16:25:38;6.30;;;4.53;;
2191;SDS011;1102;49.718;11.902;2023-03-17T16:28:15;5.97;;;4.77;;
2191;SDS011;1102;49.718;11.902;2023-03-17T16:30:44;4.87;;;3.60;;
2191;SDS011;1102;49.718;11.902;2023-03-17T16:33:16;6.43;;;5.00;;
2191;SDS011;1102;49.718;11.902;2023-03-17T16:35:45;6.17;;;5.57;;
2191;SDS011;1102;49.718;11.902;2023-03-17T16:38:18;6.60;;;5.70;;